Time;durP1;ratioP1;P1;durP2;ratioP2;P2;SDS_P1;SDS_P2;PMS_P1;PMS_P2;Temp;Humidity;BMP_temperature;BMP_pressure;BME280_temperature;BME280_humidity;BME280_pressure;Samples;Min_cycle;Max_cycle;Signal;HPM_P1;HPM_P2
2022/05/13 00:01:20;;;;;;;8.30;4.20;;;19.60;73.20;;;;;;5076058;28;20230;-72
2022/05/13 00:03:47;;;;;;;8.90;4.33;;;19.60;73.60;;;;;;5076117;28;20381;-72
2022/05/13 00:06:14;;;;;;;10.40;5.00;;;19.60;73.50;;;;;;5084731;28;20220;-71
2022/05/13 00:08:41;;;;;;;7.57;3.83;;;19.50;73.50;;;;;;5099624;28;20202;-72
2022/05/13 00:11:09;;;;;;;8.30;5.10;;;19.50;73.90;;;;;;5072642;28;20227;-72
2022/05/13 00:13:37;;;;;;;9.93;5.17;;;19.40;73.50;;;;;;5075964;28;20225;-72
2022/05/13 00:16:05;;;;;;;11.97;5.33;;;19.40;73.20;;;;;;5082588;28;20212;-72
2022/05/13 00:18:33;;;;;;;6.63;4.13;;;19.40;73.60;;;;;;5047381;28;20515;-71
2022/05/13 00:21:00;;;;;;;11.80;4.37;;;19.30;73.90;;;;;;5082080;28;20283;-71
2022/05/13 00:23:27;;;;;;;8.60;4.03;;;19.20;74.30;;;;;;5074561;28;20313;-71
2022/05/13 00:25:55;;;;;;;6.63;3.80;;;19.20;74.70;;;;;;5070986;28;20505;-71
2022/05/13 00:28:22;;;;;;;10.30;4.80;;;19.20;74.90;;;;;;5060285;28;20204;-72
2022/05/13 00:30:49;;;;;;;5.07;4.30;;;19.10;74.90;;;;;;5062506;28;20200;-72
2022/05/13 00:33:19;;;;;;;5.87;4.00;;;19.10;75.10;;;;;;5059777;28;20232;-72
2022/05/13 00:35:48;;;;;;;5.23;4.30;;;19.10;75.20;;;;;;5062617;28;20556;-72
2022/05/13 00:38:15;;;;;;;13.30;4.83;;;19.10;75.10;;;;;;5062439;28;20206;-72
2022/05/13 00:40:44;;;;;;;7.17;4.43;;;19.00;75.10;;;;;;5061989;28;20188;-71
2022/05/13 00:43:13;;;;;;;8.33;4.40;;;19.00;75.00;;;;;;5067666;28;20220;-71
2022/05/13 00:45:41;;;;;;;6.87;4.70;;;18.90;75.40;;;;;;5059191;28;20269;-71
2022/05/13 00:48:08;;;;;;;7.03;5.40;;;18.90;75.90;;;;;;5100270;28;20303;-72
2022/05/13 00:50:38;;;;;;;8.97;5.07;;;18.90;76.20;;;;;;5055548;28;20286;-72
2022/05/13 00:53:12;;;;;;;7.23;4.50;;;18.90;76.20;;;;;;5066009;28;20737;-71
2022/05/13 00:55:44;;;;;;;14.13;5.20;;;18.90;76.20;;;;;;5055329;28;20210;-71
2022/05/13 00:58:16;;;;;;;7.17;4.33;;;18.80;76.20;;;;;;5065991;28;20525;-71
2022/05/13 01:00:44;;;;;;;8.60;3.73;;;18.90;76.00;;;;;;5058506;28;20207;-71
2022/05/13 01:03:11;;;;;;;8.23;4.60;;;18.90;76.00;;;;;;5067228;28;20203;-72
2022/05/13 01:05:43;;;;;;;8.00;4.10;;;18.90;75.70;;;;;;5059497;28;20208;-72
2022/05/13 01:08:11;;;;;;;5.10;3.40;;;18.90;74.70;;;;;;5066777;28;20213;-72
2022/05/13 01:10:43;;;;;;;8.67;3.57;;;18.90;73.60;;;;;;5059592;28;20630;-72
2022/05/13 01:13:15;;;;;;;7.90;3.53;;;18.90;72.50;;;;;;5063499;28;20303;-72
2022/05/13 01:15:43;;;;;;;8.57;4.00;;;18.90;71.30;;;;;;5073183;28;20198;-72
2022/05/13 01:18:11;;;;;;;11.40;3.10;;;19.00;70.90;;;;;;5098344;28;20208;-72
2022/05/13 01:20:50;;;;;;;6.17;2.90;;;19.00;70.10;;;;;;5068968;28;20216;-72
2022/05/13 01:23:31;;;;;;;3.60;2.50;;;19.00;69.10;;;;;;5075622;28;20292;-72
2022/05/13 01:26:11;;;;;;;8.07;3.30;;;19.00;68.10;;;;;;5077448;28;20213;-71
2022/05/13 01:28:42;;;;;;;8.83;2.90;;;19.00;68.20;;;;;;5083987;28;20208;-71
2022/05/13 01:31:20;;;;;;;6.30;2.73;;;19.00;68.40;;;;;;5080677;28;20201;-72
2022/05/13 01:33:47;;;;;;;5.70;2.70;;;19.00;67.60;;;;;;5081275;28;20221;-72
2022/05/13 01:36:15;;;;;;;5.37;2.40;;;18.90;67.20;;;;;;5077372;28;20223;-72
2022/05/13 01:38:43;;;;;;;5.60;2.90;;;18.90;67.20;;;;;;5083600;28;20238;-71
2022/05/13 01:41:12;;;;;;;5.13;2.20;;;18.90;67.00;;;;;;5080496;28;20204;-71
2022/05/13 01:43:42;;;;;;;4.50;2.43;;;18.90;67.10;;;;;;5102622;28;20218;-72
2022/05/13 01:46:10;;;;;;;8.13;2.00;;;18.90;66.60;;;;;;5085449;28;20205;-72
2022/05/13 01:48:38;;;;;;;7.43;2.50;;;18.90;66.20;;;;;;5101766;28;20298;-72
2022/05/13 01:51:06;;;;;;;6.33;2.73;;;18.90;65.40;;;;;;5080980;28;20242;-71
2022/05/13 01:53:33;;;;;;;5.03;2.27;;;18.80;64.60;;;;;;5084223;28;20239;-71
2022/05/13 01:56:00;;;;;;;2.57;2.20;;;18.80;64.20;;;;;;5079408;28;20219;-71
2022/05/13 01:58:33;;;;;;;3.13;2.07;;;18.90;63.40;;;;;;5098856;28;20254;-71
2022/05/13 02:01:03;;;;;;;4.60;2.03;;;18.80;63.00;;;;;;5076859;28;20203;-71
2022/05/13 02:03:46;;;;;;;5.57;2.37;;;18.80;62.50;;;;;;5064811;28;20235;-72
2022/05/13 02:06:22;;;;;;;4.53;1.90;;;18.80;62.20;;;;;;5106552;28;20207;-71
2022/05/13 02:08:52;;;;;;;7.30;2.27;;;18.80;62.50;;;;;;5065771;28;20208;-71
2022/05/13 02:11:21;;;;;;;5.83;2.63;;;18.80;62.50;;;;;;5065003;28;20215;-71
2022/05/13 02:13:50;;;;;;;6.40;2.23;;;18.80;62.90;;;;;;5083977;28;20216;-71
2022/05/13 02:16:17;;;;;;;6.40;2.53;;;18.80;63.20;;;;;;5091828;28;20207;-71
2022/05/13 02:18:44;;;;;;;6.97;2.47;;;18.80;63.50;;;;;;5084752;28;20265;-71
2022/05/13 02:21:13;;;;;;;8.23;2.87;;;18.80;63.70;;;;;;5077799;28;20530;-71
2022/05/13 02:23:41;;;;;;;6.27;3.17;;;18.80;63.90;;;;;;5084521;28;20246;-71
2022/05/13 02:26:11;;;;;;;6.13;3.17;;;18.70;64.10;;;;;;5091353;28;20203;-71
2022/05/13 02:28:39;;;;;;;7.00;3.53;;;18.70;64.30;;;;;;5067545;28;20211;-71
2022/05/13 02:31:07;;;;;;;7.47;3.27;;;18.70;64.60;;;;;;5076551;28;20656;-71
2022/05/13 02:33:35;;;;;;;4.97;2.90;;;18.70;65.00;;;;;;5081571;28;20216;-72
2022/05/13 02:36:04;;;;;;;6.27;3.13;;;18.60;65.00;;;;;;5106239;28;20203;-72
2022/05/13 02:38:31;;;;;;;7.80;2.83;;;18.60;65.80;;;;;;5096840;28;20230;-71
2022/05/13 02:41:11;;;;;;;9.30;3.50;;;18.60;66.80;;;;;;5056000;28;20738;-71
2022/05/13 02:43:48;;;;;;;8.20;3.37;;;18.50;66.80;;;;;;5101959;28;20271;-71
2022/05/13 02:46:23;;;;;;;7.20;3.93;;;18.50;67.10;;;;;;5076198;28;20218;-71
2022/05/13 02:48:51;;;;;;;7.27;3.60;;;18.40;67.00;;;;;;5081212;28;20214;-71
2022/05/13 02:51:18;;;;;;;7.63;3.50;;;18.40;67.40;;;;;;5090755;28;20206;-71
2022/05/13 02:53:46;;;;;;;7.57;4.03;;;18.40;67.70;;;;;;5074098;28;20230;-71
2022/05/13 02:56:14;;;;;;;8.43;4.43;;;18.30;67.60;;;;;;5078279;28;20198;-71
2022/05/13 02:58:45;;;;;;;7.33;4.67;;;18.30;67.90;;;;;;5095297;28;20624;-71
2022/05/13 03:01:13;;;;;;;6.63;3.90;;;18.30;68.10;;;;;;5076511;28;20203;-71
2022/05/13 03:03:44;;;;;;;9.57;4.23;;;18.20;68.20;;;;;;5095457;28;20604;-71
2022/05/13 03:06:11;;;;;;;12.83;5.17;;;18.20;68.30;;;;;;5080504;28;20209;-71
2022/05/13 03:08:38;;;;;;;9.17;4.67;;;18.20;67.80;;;;;;5083034;28;20210;-71
2022/05/13 03:11:07;;;;;;;6.57;3.90;;;18.20;67.50;;;;;;5101777;28;20553;-71
2022/05/13 03:13:35;;;;;;;6.77;4.13;;;18.10;67.50;;;;;;5073402;28;20225;-71
2022/05/13 03:16:04;;;;;;;8.83;4.13;;;18.10;68.10;;;;;;5094245;28;20202;-71
2022/05/13 03:18:31;;;;;;;6.80;3.90;;;18.10;68.10;;;;;;5100490;28;20216;-71
2022/05/13 03:20:59;;;;;;;15.47;4.60;;;18.00;68.20;;;;;;5087266;28;20233;-72
2022/05/13 03:23:26;;;;;;;6.83;4.37;;;18.00;68.50;;;;;;5065886;28;20238;-71
2022/05/13 03:25:53;;;;;;;8.80;4.37;;;18.00;68.30;;;;;;5086579;28;20236;-71
2022/05/13 03:28:20;;;;;;;6.30;3.73;;;17.90;68.90;;;;;;5090064;28;20268;-71
2022/05/13 03:30:49;;;;;;;8.63;3.80;;;17.80;69.20;;;;;;5072623;28;20632;-71
2022/05/13 03:33:18;;;;;;;6.27;4.17;;;17.80;69.20;;;;;;5085989;28;20227;-71
2022/05/13 03:35:45;;;;;;;9.87;4.63;;;17.70;69.40;;;;;;5072966;28;20289;-72
2022/05/13 03:38:13;;;;;;;7.07;4.77;;;17.70;70.00;;;;;;5072978;28;20199;-71
2022/05/13 03:40:40;;;;;;;6.03;3.90;;;17.60;70.90;;;;;;5079662;28;20211;-71
2022/05/13 03:43:07;;;;;;;11.70;4.67;;;17.60;70.30;;;;;;5057959;28;20613;-71
2022/05/13 03:45:36;;;;;;;9.17;4.43;;;17.50;70.30;;;;;;5066332;28;20553;-71
2022/05/13 03:48:05;;;;;;;13.13;5.00;;;17.50;70.40;;;;;;5072912;28;20202;-71
2022/05/13 03:50:35;;;;;;;8.83;4.87;;;17.50;69.80;;;;;;5088573;28;20614;-71
2022/05/13 03:53:03;;;;;;;8.20;5.40;;;17.40;69.50;;;;;;5072734;28;20529;-71
2022/05/13 03:55:31;;;;;;;7.57;4.57;;;17.40;70.20;;;;;;5100222;28;20315;-71
2022/05/13 03:57:58;;;;;;;9.00;4.67;;;17.30;70.10;;;;;;5078172;28;20535;-71
2022/05/13 04:00:26;;;;;;;14.37;5.57;;;17.30;69.80;;;;;;5072824;28;20241;-71
2022/05/13 04:02:53;;;;;;;11.77;4.43;;;17.30;70.30;;;;;;5072749;28;20268;-72
2022/05/13 04:10:53;;;;;;;7.97;4.87;;;17.20;69.00;;;;;;5084757;28;20284;-71
2022/05/13 04:16:06;;;;;;;6.23;4.40;;;17.20;70.10;;;;;;5081666;28;20237;-71
2022/05/13 04:18:41;;;;;;;7.83;4.70;;;17.20;69.60;;;;;;5075109;28;20225;-71
2022/05/13 04:21:11;;;;;;;6.27;4.73;;;17.20;69.60;;;;;;5083564;28;20193;-71
2022/05/13 04:23:42;;;;;;;6.70;4.47;;;17.30;69.90;;;;;;5075964;28;20271;-72
2022/05/13 04:26:12;;;;;;;8.00;4.60;;;17.30;70.10;;;;;;5085570;28;20217;-71
2022/05/13 04:28:44;;;;;;;9.67;5.13;;;17.30;70.20;;;;;;5078335;28;20291;-71
2022/05/13 04:31:13;;;;;;;7.60;4.93;;;17.30;69.60;;;;;;5065844;28;20203;-71
2022/05/13 04:33:41;;;;;;;7.50;4.80;;;17.30;70.30;;;;;;5060459;28;20245;-71
2022/05/13 04:36:10;;;;;;;7.30;4.57;;;17.40;69.60;;;;;;5085720;28;20216;-71
2022/05/13 04:38:37;;;;;;;13.87;4.37;;;17.40;70.20;;;;;;5093711;28;20202;-72
2022/05/13 04:43:53;;;;;;;8.33;4.57;;;17.40;71.00;;;;;;5078192;28;20298;-72
2022/05/13 04:46:20;;;;;;;5.43;4.13;;;17.50;69.80;;;;;;5076507;28;20208;-71
2022/05/13 04:48:47;;;;;;;6.23;5.07;;;17.50;69.40;;;;;;5060412;28;20556;-71
2022/05/13 04:51:18;;;;;;;9.43;4.57;;;17.60;69.70;;;;;;5085543;28;20213;-71
2022/05/13 04:53:48;;;;;;;10.30;4.87;;;17.60;70.30;;;;;;5077275;28;20234;-72
2022/05/13 04:56:16;;;;;;;7.43;4.40;;;17.70;70.00;;;;;;5067954;28;20618;-72
2022/05/13 04:58:43;;;;;;;11.63;5.13;;;17.80;69.50;;;;;;5080168;28;20612;-72
2022/05/13 05:01:11;;;;;;;7.60;4.50;;;17.90;68.70;;;;;;5085698;28;20654;-71
2022/05/13 05:03:42;;;;;;;18.33;4.53;;;17.90;68.10;;;;;;5108935;28;20222;-71
2022/05/13 05:06:11;;;;;;;7.40;4.23;;;18.00;68.10;;;;;;5069552;28;20217;-72
2022/05/13 05:08:40;;;;;;;7.37;4.10;;;18.20;68.50;;;;;;5084675;28;20216;-72
2022/05/13 05:11:08;;;;;;;8.40;4.27;;;18.30;68.80;;;;;;5082900;28;20232;-71
2022/05/13 05:13:38;;;;;;;7.93;4.00;;;18.40;68.40;;;;;;5098391;28;20210;-71
2022/05/13 05:16:06;;;;;;;9.17;3.93;;;18.40;67.50;;;;;;5068597;28;20221;-71
2022/05/13 05:18:36;;;;;;;5.33;3.83;;;18.50;66.30;;;;;;5094012;28;20210;-71
2022/05/13 05:21:05;;;;;;;11.73;4.27;;;18.70;65.50;;;;;;5081107;28;20222;-72
2022/05/13 05:23:34;;;;;;;9.23;3.97;;;18.80;65.40;;;;;;5079636;28;20559;-72
2022/05/13 05:26:03;;;;;;;6.13;3.47;;;18.90;65.10;;;;;;5081823;28;20228;-72
2022/05/13 05:28:30;;;;;;;8.30;4.03;;;19.10;64.60;;;;;;5091443;28;20214;-72
2022/05/13 05:31:00;;;;;;;4.17;3.77;;;19.20;64.30;;;;;;5069977;28;20634;-72
2022/05/13 05:33:28;;;;;;;7.30;4.00;;;19.30;64.30;;;;;;5071409;28;20245;-72
2022/05/13 05:35:56;;;;;;;4.70;3.37;;;19.50;64.80;;;;;;5085168;28;20619;-72
2022/05/13 05:38:23;;;;;;;7.50;4.10;;;19.70;63.90;;;;;;5104424;28;20720;-71
2022/05/13 05:40:51;;;;;;;8.27;4.17;;;19.80;63.60;;;;;;5107088;28;20204;-71
2022/05/13 05:43:20;;;;;;;5.20;3.90;;;20.00;63.00;;;;;;5086028;28;20197;-72
2022/05/13 05:45:48;;;;;;;8.10;4.40;;;20.10;62.90;;;;;;5072853;28;20309;-71
2022/05/13 05:48:21;;;;;;;9.07;3.70;;;20.20;63.20;;;;;;5085326;28;20222;-71
2022/05/13 05:50:55;;;;;;;5.13;3.97;;;20.30;63.30;;;;;;5079166;28;20654;-71
2022/05/13 05:58:58;;;;;;;8.57;4.10;;;20.70;63.10;;;;;;5104709;28;20292;-71
2022/05/13 06:01:25;;;;;;;8.83;4.00;;;20.80;62.30;;;;;;5079706;28;20209;-72
2022/05/13 06:03:52;;;;;;;5.93;3.33;;;20.90;61.70;;;;;;5104200;28;20618;-72
2022/05/13 06:06:20;;;;;;;5.00;3.67;;;21.00;61.60;;;;;;5071964;28;20295;-72
2022/05/13 06:08:47;;;;;;;7.97;4.27;;;21.10;61.70;;;;;;5065009;28;20594;-72
2022/05/13 06:11:14;;;;;;;8.93;3.70;;;21.30;61.90;;;;;;5076468;28;20209;-72
2022/05/13 06:13:41;;;;;;;18.07;4.43;;;21.40;61.50;;;;;;5103008;28;20201;-72
2022/05/13 06:16:08;;;;;;;8.57;3.57;;;21.50;60.90;;;;;;5105441;28;20216;-71
2022/05/13 06:18:37;;;;;;;5.07;3.87;;;21.70;60.50;;;;;;5061774;28;20296;-71
2022/05/13 06:21:04;;;;;;;5.77;3.33;;;21.80;59.50;;;;;;5062109;28;20631;-71
2022/05/13 06:23:32;;;;;;;5.80;3.67;;;21.90;59.30;;;;;;5085673;28;20233;-71
2022/05/13 06:25:59;;;;;;;8.83;3.67;;;22.00;59.00;;;;;;5090095;28;20201;-71
2022/05/13 06:28:28;;;;;;;7.37;3.73;;;22.20;58.80;;;;;;5064518;28;20296;-71
2022/05/13 06:30:55;;;;;;;7.83;4.47;;;22.30;58.30;;;;;;5072252;28;20208;-72
2022/05/13 06:33:23;;;;;;;5.00;3.80;;;22.40;58.60;;;;;;5072098;28;20731;-72
2022/05/13 06:35:50;;;;;;;4.63;4.07;;;22.50;58.60;;;;;;5089854;28;20216;-72
2022/05/13 06:38:23;;;;;;;6.63;4.47;;;22.80;59.30;;;;;;5082038;28;20197;-72
2022/05/13 06:40:52;;;;;;;9.67;4.73;;;22.90;59.20;;;;;;5070367;28;20650;-72
2022/05/13 06:43:21;;;;;;;8.83;4.33;;;23.00;58.80;;;;;;5052525;28;20300;-72
2022/05/13 06:45:49;;;;;;;7.83;4.77;;;23.20;58.80;;;;;;5090132;28;20544;-72
2022/05/13 06:48:16;;;;;;;7.03;3.87;;;23.30;58.70;;;;;;5082831;28;20202;-72
2022/05/13 06:50:46;;;;;;;10.80;4.97;;;23.50;58.60;;;;;;5074232;28;20275;-71
2022/05/13 06:53:15;;;;;;;9.23;5.90;;;23.60;58.10;;;;;;5086236;28;20194;-72
2022/05/13 06:55:44;;;;;;;10.10;5.70;;;23.70;57.50;;;;;;5077702;28;20218;-72
2022/05/13 06:58:12;;;;;;;8.83;5.40;;;23.80;57.50;;;;;;5083799;28;20654;-71
2022/05/13 07:00:40;;;;;;;11.00;5.90;;;23.90;57.50;;;;;;5074829;28;20268;-72
2022/05/13 07:03:14;;;;;;;9.17;6.03;;;24.10;57.30;;;;;;5063220;28;20308;-72
2022/05/13 07:05:42;;;;;;;12.87;5.47;;;24.20;57.10;;;;;;5090043;28;20668;-72
2022/05/13 07:08:09;;;;;;;13.37;5.60;;;24.40;57.20;;;;;;5066635;28;20212;-72
2022/05/13 07:10:39;;;;;;;11.07;6.40;;;24.50;56.80;;;;;;5090932;28;20251;-72
2022/05/13 07:13:12;;;;;;;12.40;6.30;;;24.60;56.80;;;;;;5062276;28;20236;-72
2022/05/13 07:15:39;;;;;;;9.70;5.87;;;24.70;57.20;;;;;;5085304;28;20300;-72
2022/05/13 07:18:07;;;;;;;10.80;6.30;;;24.80;56.10;;;;;;5081857;28;20275;-72
2022/05/13 07:20:35;;;;;;;11.23;6.73;;;24.90;56.90;;;;;;5054337;28;20253;-72
2022/05/13 07:23:02;;;;;;;14.93;6.00;;;25.00;56.80;;;;;;5098740;28;20236;-72
2022/05/13 07:25:31;;;;;;;8.73;6.20;;;25.10;56.50;;;;;;5076711;28;20205;-72
2022/05/13 07:27:58;;;;;;;10.40;6.40;;;25.10;55.40;;;;;;5085920;28;20631;-72
2022/05/13 07:30:25;;;;;;;13.83;6.63;;;25.10;56.50;;;;;;5091571;28;20214;-72
2022/05/13 07:32:53;;;;;;;9.37;6.67;;;25.10;56.10;;;;;;5077715;28;20231;-72
2022/05/13 07:35:20;;;;;;;9.23;5.93;;;25.20;56.40;;;;;;5083867;28;20225;-72
2022/05/13 07:37:47;;;;;;;11.67;7.47;;;25.40;56.50;;;;;;5068920;28;20210;-72
2022/05/13 07:43:00;;;;;;;9.47;6.47;;;25.60;55.20;;;;;;5085344;28;20223;-72
2022/05/13 07:45:28;;;;;;;9.67;6.37;;;25.70;56.10;;;;;;5092099;28;20211;-72
2022/05/13 07:47:55;;;;;;;11.63;6.70;;;25.70;56.30;;;;;;5093151;28;20213;-72
2022/05/13 07:50:23;;;;;;;14.57;6.63;;;25.70;56.10;;;;;;5102153;28;20237;-72
2022/05/13 07:52:51;;;;;;;10.20;5.80;;;25.90;56.20;;;;;;5087485;28;20698;-72
2022/05/13 07:55:19;;;;;;;10.20;7.20;;;25.90;56.40;;;;;;5086594;28;20228;-72
2022/05/13 07:57:47;;;;;;;8.40;6.23;;;25.90;54.00;;;;;;5088866;28;20197;-72
2022/05/13 08:00:26;;;;;;;10.07;6.90;;;25.90;54.10;;;;;;5082781;28;20202;-72
2022/05/13 08:02:57;;;;;;;13.00;5.97;;;25.80;54.80;;;;;;5089945;28;20574;-72
2022/05/13 08:05:27;;;;;;;12.83;6.53;;;25.90;55.50;;;;;;5098843;28;20304;-72
2022/05/13 08:08:03;;;;;;;14.47;6.53;;;26.00;55.30;;;;;;5061135;28;20246;-72
2022/05/13 08:10:31;;;;;;;16.93;6.57;;;26.20;55.20;;;;;;5099671;28;20209;-72
2022/05/13 08:12:58;;;;;;;12.93;6.10;;;26.40;55.10;;;;;;5078855;28;20316;-72
2022/05/13 08:15:25;;;;;;;10.13;6.20;;;26.50;54.70;;;;;;5071565;28;20224;-72
2022/05/13 08:17:52;;;;;;;10.63;6.13;;;26.60;55.70;;;;;;5088004;28;20230;-72
2022/05/13 08:20:21;;;;;;;9.67;6.00;;;26.80;54.40;;;;;;5087535;28;20288;-72
2022/05/13 08:22:48;;;;;;;10.13;5.93;;;26.80;54.10;;;;;;5075004;28;20232;-72
2022/05/13 08:25:15;;;;;;;10.17;6.57;;;26.90;54.00;;;;;;5091072;28;20268;-72
2022/05/13 08:27:42;;;;;;;7.03;6.07;;;27.00;53.10;;;;;;5076547;28;20216;-72
2022/05/13 08:30:11;;;;;;;9.13;5.93;;;27.00;52.90;;;;;;5086239;28;20652;-71
2022/05/13 08:32:39;;;;;;;15.43;5.73;;;27.00;53.20;;;;;;5092786;28;20201;-72
2022/05/13 08:35:06;;;;;;;9.13;5.53;;;27.10;52.60;;;;;;5084747;28;20223;-72
2022/05/13 08:37:47;;;;;;;8.70;5.23;;;27.20;53.10;;;;;;5092804;28;20212;-72
2022/05/13 08:40:37;;;;;;;10.27;4.57;;;27.30;52.70;;;;;;5074211;28;20213;-72
2022/05/13 08:43:11;;;;;;;8.53;4.60;;;27.50;50.00;;;;;;5059656;28;20277;-72
2022/05/13 08:45:41;;;;;;;5.47;3.77;;;27.50;49.70;;;;;;5073670;28;20666;-72
2022/05/13 08:48:13;;;;;;;9.77;4.57;;;27.50;49.70;;;;;;5105863;28;20201;-69
2022/05/13 08:51:15;;;;;;;11.80;4.37;;;27.60;49.80;;;;;;5083697;28;20248;-69
2022/05/13 08:53:56;;;;;;;9.10;4.40;;;27.70;50.30;;;;;;5034232;28;20220;-69
2022/05/13 08:56:27;;;;;;;6.70;4.20;;;27.80;48.70;;;;;;5089504;28;20274;-69
2022/05/13 08:59:13;;;;;;;7.77;4.23;;;27.80;48.40;;;;;;5106407;28;20223;-68
2022/05/13 09:01:49;;;;;;;5.10;3.43;;;27.90;49.70;;;;;;5082391;28;20272;-68
2022/05/13 09:04:22;;;;;;;10.80;4.53;;;28.00;48.00;;;;;;5104486;28;20885;-68
2022/05/13 09:07:02;;;;;;;7.83;4.80;;;28.00;46.20;;;;;;5079161;28;20208;-69
2022/05/13 09:09:31;;;;;;;7.47;3.80;;;27.90;48.10;;;;;;5079788;28;20224;-69
2022/05/13 09:12:04;;;;;;;8.70;4.17;;;27.80;48.40;;;;;;5052356;28;20213;-68
2022/05/13 09:14:45;;;;;;;7.20;4.07;;;27.90;48.40;;;;;;5095028;28;20212;-68
2022/05/13 09:17:44;;;;;;;11.13;3.93;;;28.00;47.80;;;;;;5090070;28;20275;-68
2022/05/13 09:20:12;;;;;;;6.87;3.60;;;28.10;45.90;;;;;;5052734;28;20600;-68
2022/05/13 09:22:58;;;;;;;9.20;3.33;;;28.20;44.10;;;;;;5075816;28;20328;-68
2022/05/13 09:25:37;;;;;;;6.07;2.97;;;28.20;47.40;;;;;;5080724;28;20284;-68
2022/05/13 09:28:10;;;;;;;7.63;2.83;;;28.20;45.80;;;;;;5091735;28;20209;-68
2022/05/13 09:30:46;;;;;;;5.10;2.87;;;28.20;44.40;;;;;;5083957;28;20298;-68
2022/05/13 09:33:24;;;;;;;6.47;3.00;;;28.20;45.00;;;;;;5074936;28;20212;-68
2022/05/13 09:35:55;;;;;;;9.67;3.40;;;28.30;44.90;;;;;;5079078;28;20323;-68
2022/05/13 09:38:26;;;;;;;6.70;3.43;;;28.40;44.60;;;;;;5083998;28;20205;-68
2022/05/13 09:41:05;;;;;;;12.97;4.10;;;28.50;45.70;;;;;;5073942;28;20305;-68
2022/05/13 09:43:50;;;;;;;7.03;3.40;;;28.70;45.70;;;;;;5062018;28;20232;-69
2022/05/13 09:46:29;;;;;;;6.40;2.83;;;28.80;45.60;;;;;;5071306;28;20213;-69
2022/05/13 09:49:02;;;;;;;5.97;3.17;;;28.90;43.10;;;;;;5059293;28;20526;-69
2022/05/13 09:52:00;;;;;;;7.53;3.10;;;28.90;43.40;;;;;;5084616;28;20282;-69
2022/05/13 09:54:33;;;;;;;6.57;2.97;;;28.90;44.20;;;;;;5069841;28;20583;-69
2022/05/13 09:57:10;;;;;;;6.13;2.43;;;28.80;44.00;;;;;;5104510;28;20273;-68
2022/05/13 10:00:04;;;;;;;6.27;3.00;;;28.90;44.20;;;;;;5076196;28;20227;-68
2022/05/13 10:02:42;;;;;;;7.73;3.13;;;28.90;43.70;;;;;;5072907;28;20269;-68
2022/05/13 10:05:23;;;;;;;5.43;2.80;;;29.10;44.20;;;;;;5072110;28;20213;-68
2022/05/13 10:07:50;;;;;;;5.03;2.70;;;29.10;44.20;;;;;;5056155;28;20209;-68
2022/05/13 10:16:02;;;;;;;6.73;2.40;;;29.20;42.40;;;;;;5080406;28;20221;-69
2022/05/13 10:18:32;;;;;;;6.57;2.60;;;29.20;43.00;;;;;;5072717;28;20225;-69
2022/05/13 10:21:08;;;;;;;5.47;2.77;;;29.30;44.00;;;;;;5101071;28;20541;-69
2022/05/13 10:23:57;;;;;;;3.50;2.87;;;29.50;44.10;;;;;;5079247;28;20427;-69
2022/05/13 10:26:34;;;;;;;7.53;2.60;;;29.60;44.60;;;;;;5083817;28;20220;-69
2022/05/13 10:29:14;;;;;;;3.67;2.53;;;29.70;44.70;;;;;;5077798;28;20200;-69
2022/05/13 10:31:45;;;;;;;6.27;2.83;;;29.80;43.10;;;;;;5081697;28;20296;-69
2022/05/13 10:34:33;;;;;;;15.07;3.47;;;29.80;40.90;;;;;;5090143;28;20205;-69
2022/05/13 10:37:08;;;;;;;6.93;2.83;;;29.80;42.40;;;;;;5064184;28;20525;-69
2022/05/13 10:39:46;;;;;;;5.90;2.93;;;29.80;43.20;;;;;;5075464;28;20276;-69
2022/05/13 10:42:18;;;;;;;5.30;2.50;;;29.90;42.90;;;;;;5082229;28;20206;-69
2022/05/13 10:45:19;;;;;;;6.17;2.97;;;30.00;42.90;;;;;;5049000;28;20527;-69
2022/05/13 10:47:55;;;;;;;4.93;2.77;;;30.20;42.10;;;;;;5064445;28;20198;-69
2022/05/13 10:50:41;;;;;;;3.63;2.37;;;30.30;41.60;;;;;;5092776;28;20211;-69
2022/05/13 10:53:18;;;;;;;6.00;2.37;;;30.40;41.70;;;;;;5079332;28;20194;-69
2022/05/13 10:55:55;;;;;;;5.00;2.00;;;30.50;41.30;;;;;;5077709;28;20276;-70
2022/05/13 10:58:28;;;;;;;4.80;2.20;;;30.60;42.50;;;;;;5073813;28;20196;-69
2022/05/13 11:01:16;;;;;;;4.23;2.00;;;30.70;42.10;;;;;;5089250;28;20212;-69
2022/05/13 11:03:59;;;;;;;8.33;2.20;;;30.70;40.70;;;;;;5103794;28;20200;-69
2022/05/13 11:06:50;;;;;;;4.90;2.20;;;30.80;40.30;;;;;;5083678;28;20663;-69
2022/05/13 11:09:42;;;;;;;3.77;2.30;;;30.90;41.40;;;;;;5052751;28;20304;-69
2022/05/13 11:12:28;;;;;;;4.53;2.30;;;30.90;41.30;;;;;;5098185;28;20282;-69
2022/05/13 11:15:57;;;;;;;4.93;2.20;;;31.00;39.70;;;;;;5075813;28;20255;-69
2022/05/13 11:19:07;;;;;;;4.70;2.37;;;31.00;39.00;;;;;;4998629;28;20287;-69
2022/05/13 11:22:05;;;;;;;4.20;2.67;;;31.10;40.20;;;;;;5006983;28;20204;-69
2022/05/13 11:28:08;;;;;;;5.17;2.57;;;31.10;39.70;;;;;;5086034;28;20198;-69
2022/05/13 11:31:15;;;;;;;2.90;1.83;;;31.20;39.50;;;;;;5089838;28;20212;-69
2022/05/13 11:34:02;;;;;;;5.80;2.80;;;31.20;39.40;;;;;;5077409;28;20197;-69
2022/05/13 11:36:36;;;;;;;5.47;2.20;;;31.20;38.70;;;;;;5087714;28;20324;-69
2022/05/13 11:39:09;;;;;;;7.20;2.87;;;31.10;38.80;;;;;;5107311;28;20204;-69
2022/05/13 11:42:07;;;;;;;7.50;2.57;;;31.00;39.30;;;;;;5083228;28;20244;-69
2022/05/13 11:45:12;;;;;;;4.43;2.83;;;31.00;39.10;;;;;;5077211;28;20198;-69
2022/05/13 11:48:16;;;;;;;3.23;2.10;;;31.00;40.00;;;;;;5093463;28;20210;-69
2022/05/13 11:50:44;;;;;;;6.87;2.57;;;31.00;40.20;;;;;;5079224;28;20280;-69
2022/05/13 11:53:11;;;;;;;5.73;2.60;;;31.00;41.40;;;;;;5074438;28;20212;-69
2022/05/13 11:55:41;;;;;;;10.23;2.47;;;31.00;41.60;;;;;;5062737;28;20218;-69
2022/05/13 11:58:29;;;;;;;4.93;2.23;;;31.10;40.20;;;;;;5103994;28;20203;-69
2022/05/13 12:00:56;;;;;;;4.03;2.20;;;31.20;39.60;;;;;;5078889;28;20284;-69
2022/05/13 12:03:23;;;;;;;4.83;2.23;;;31.30;38.80;;;;;;5077919;28;20219;-69
2022/05/13 12:06:00;;;;;;;4.93;2.50;;;31.10;38.20;;;;;;5076615;28;20588;-69
2022/05/13 12:08:39;;;;;;;3.93;2.50;;;31.10;39.00;;;;;;5086805;28;20197;-69
2022/05/13 12:11:06;;;;;;;6.30;2.83;;;31.00;39.20;;;;;;5110119;28;20227;-69
2022/05/13 12:13:45;;;;;;;4.97;3.00;;;31.00;39.90;;;;;;5076541;28;20683;-69
2022/05/13 12:16:24;;;;;;;4.90;2.70;;;31.00;40.80;;;;;;5092194;28;20593;-69
2022/05/13 12:19:20;;;;;;;6.93;2.30;;;31.10;41.20;;;;;;5084687;28;20488;-69
2022/05/13 12:21:56;;;;;;;5.00;2.20;;;31.20;41.20;;;;;;5083013;28;20609;-69
2022/05/13 12:24:25;;;;;;;4.90;2.23;;;31.30;41.00;;;;;;5083004;28;20232;-69
2022/05/13 12:26:52;;;;;;;5.50;2.23;;;31.30;41.40;;;;;;5078970;28;20288;-69
2022/05/13 12:29:39;;;;;;;6.73;2.63;;;31.40;41.90;;;;;;5083751;28;20205;-69
2022/05/13 12:32:19;;;;;;;4.63;2.60;;;31.40;41.40;;;;;;5073226;28;20244;-69
2022/05/13 12:37:48;;;;;;;6.70;2.50;;;31.60;42.50;;;;;;5080977;28;20513;-69
2022/05/13 12:40:24;;;;;;;2.97;2.20;;;31.60;41.00;;;;;;5107614;28;20217;-69
2022/05/13 12:42:54;;;;;;;5.83;2.20;;;31.60;41.80;;;;;;5090372;28;20215;-69
2022/05/13 12:45:36;;;;;;;4.70;2.67;;;31.60;41.40;;;;;;5079589;28;20653;-69
2022/05/13 12:48:03;;;;;;;3.33;2.10;;;31.60;41.30;;;;;;5103132;28;20641;-69
2022/05/13 12:51:09;;;;;;;3.63;1.90;;;31.60;40.80;;;;;;5080927;28;20213;-69
2022/05/13 12:53:45;;;;;;;4.73;2.10;;;31.60;40.70;;;;;;5066650;28;20216;-69
2022/05/13 12:56:23;;;;;;;7.57;2.43;;;31.60;41.00;;;;;;5077205;28;20304;-69
2022/05/13 12:59:04;;;;;;;9.90;2.37;;;31.60;39.50;;;;;;5101444;28;20718;-69
2022/05/13 13:01:32;;;;;;;5.63;2.30;;;31.50;40.80;;;;;;5074952;28;20210;-69
2022/05/13 13:04:01;;;;;;;5.80;2.30;;;31.50;40.30;;;;;;5047548;28;20216;-69
2022/05/13 13:07:07;;;;;;;3.17;2.13;;;31.40;41.10;;;;;;5088421;28;20212;-69
2022/05/13 13:09:43;;;;;;;5.40;1.90;;;31.50;42.00;;;;;;5058769;28;20209;-69
2022/05/13 13:12:20;;;;;;;4.80;2.50;;;31.50;41.20;;;;;;5077950;28;20619;-69
2022/05/13 13:15:20;;;;;;;4.73;2.07;;;31.40;40.30;;;;;;5101490;28;20210;-69
2022/05/13 13:17:49;;;;;;;5.60;2.80;;;31.30;40.60;;;;;;5092623;28;20210;-69
2022/05/13 13:20:18;;;;;;;3.20;2.07;;;31.30;40.70;;;;;;5080373;28;20201;-69
2022/05/13 13:22:52;;;;;;;6.00;2.50;;;31.30;38.70;;;;;;5078036;28;20312;-69
2022/05/13 13:25:25;;;;;;;4.23;2.00;;;31.30;38.80;;;;;;5088338;28;20247;-69
2022/05/13 13:27:57;;;;;;;7.63;2.33;;;31.20;38.60;;;;;;5077659;28;20211;-69
2022/05/13 13:30:25;;;;;;;7.00;2.30;;;31.20;39.60;;;;;;5076243;28;20213;-69
2022/05/13 13:32:54;;;;;;;6.70;2.03;;;31.20;40.80;;;;;;5074747;28;20204;-69
2022/05/13 13:35:36;;;;;;;4.03;2.27;;;31.20;41.20;;;;;;5098906;28;20296;-69
2022/05/13 13:38:05;;;;;;;5.67;2.57;;;31.20;42.00;;;;;;5070117;28;20210;-69
2022/05/13 13:40:43;;;;;;;6.03;2.60;;;31.20;42.50;;;;;;5064328;28;20522;-69
2022/05/13 13:43:23;;;;;;;4.40;2.17;;;31.20;42.50;;;;;;5056343;28;20210;-69
2022/05/13 13:46:05;;;;;;;5.17;2.40;;;31.20;42.90;;;;;;5082729;28;20208;-69